Time;durP1;ratioP1;P1;durP2;ratioP2;P2;SDS_P1;SDS_P2;PMS_P1;PMS_P2;Temp;Humidity;BMP_temperature;BMP_pressure;BME280_temperature;BME280_humidity;BME280_pressure;Samples;Min_cycle;Max_cycle;Signal;HPM_P1;HPM_P2
2022/08/03 00:02:51;;;;;;;;;;;23.70;37.90;;;21.52;41.41;101262.53;12253096;19;19922;-91
2022/08/03 00:06:53;;;;;;;;;;;23.60;37.90;;;21.74;40.92;101297.72;12251164;19;19927;-92
2022/08/03 00:10:54;;;;;;;;;;;23.60;38.10;;;21.51;40.99;101252.03;12250462;19;19986;-91
2022/08/03 00:14:55;;;;;;;;;;;23.60;38.10;;;21.42;41.29;101240.47;12251560;19;19926;-90
2022/08/03 00:18:57;;;;;;;;;;;23.80;38.10;;;21.43;41.21;101253.59;12247379;19;19921;-92
2022/08/03 00:22:59;;;;;;;;;;;23.50;38.00;;;21.60;41.38;101296.34;12250624;19;19936;-90
2022/08/03 00:27:01;;;;;;;;;;;23.50;38.00;;;21.22;41.19;101247.56;12250205;19;19922;-92
2022/08/03 00:31:02;;;;;;;;;;;23.40;37.90;;;20.85;41.46;101197.00;12250175;19;19915;-90
2022/08/03 00:35:05;;;;;;;;;;;23.30;37.90;;;21.15;41.06;101251.78;12249396;19;19990;-90
2022/08/03 00:39:07;;;;;;;;;;;23.30;38.00;;;21.33;41.13;101291.75;12246518;19;19929;-91
2022/08/03 00:43:09;;;;;;;;;;;23.20;38.00;;;21.27;41.62;101284.34;12248406;19;20260;-90
2022/08/03 00:47:11;;;;;;;;;;;23.10;38.00;;;20.66;41.63;101190.72;12248167;19;19911;-90
2022/08/03 00:51:13;;;;;;;;;;;23.10;38.10;;;21.14;41.37;101280.16;12249459;19;19917;-91
2022/08/03 00:55:15;;;;;;;;;;;23.10;38.20;;;21.15;41.50;101276.53;12248739;19;19944;-91
2022/08/03 00:59:17;;;;;;;;;;;23.10;38.30;;;21.05;41.29;101267.72;12246216;19;20314;-91
2022/08/03 01:03:18;;;;;;;;;;;22.90;38.30;;;21.04;41.43;101276.66;12241860;19;19919;-91
2022/08/03 01:07:56;;;;;;;;;;;22.90;38.40;;;20.75;41.70;101237.66;12243182;19;19915;-90
2022/08/03 01:12:05;;;;;;;;;;;22.80;38.40;;;20.92;41.74;101267.13;12247617;19;19932;-92
2022/08/03 01:16:43;;;;;;;;;;;22.80;38.60;;;20.90;41.64;101269.09;12247474;19;19930;-91
2022/08/03 01:20:48;;;;;;;;;;;22.70;38.50;;;20.60;41.79;101217.78;12243689;19;19933;-91
2022/08/03 01:24:58;;;;;;;;;;;22.70;38.60;;;20.92;41.78;101269.81;12247891;19;19927;-91
2022/08/03 01:29:18;;;;;;;;;;;22.70;38.60;;;20.46;41.71;101200.41;12244262;19;19966;-91
2022/08/03 01:33:24;;;;;;;;;;;22.60;38.70;;;20.76;41.78;101241.97;12258838;19;19914;-90
2022/08/03 01:37:57;;;;;;;;;;;22.60;38.80;;;20.88;41.86;101263.94;12259347;19;19914;-90
2022/08/03 01:42:05;;;;;;;;;;;22.60;38.80;;;20.77;41.94;101248.13;12257757;19;20222;-91
2022/08/03 01:46:08;;;;;;;;;;;22.60;38.90;;;20.67;41.91;101237.50;12254417;19;19922;-92
2022/08/03 01:50:11;;;;;;;;;;;22.50;38.90;;;20.66;42.23;101238.50;12255125;19;19948;-90
2022/08/03 01:54:13;;;;;;;;;;;22.50;39.00;;;20.75;42.08;101250.09;12261121;19;20326;-91
2022/08/03 01:58:16;;;;;;;;;;;22.50;39.00;;;20.83;42.05;101257.38;12257183;19;19922;-90
2022/08/03 02:02:18;;;;;;;;;;;22.50;39.00;;;20.39;41.99;101193.16;12260695;19;19962;-91
2022/08/03 02:06:21;;;;;;;;;;;22.50;39.00;;;20.68;42.46;101241.81;12256754;19;19923;-90
2022/08/03 02:10:23;;;;;;;;;;;22.50;39.00;;;20.73;42.40;101249.38;12255455;19;19910;-91
2022/08/03 02:14:26;;;;;;;;;;;22.40;39.00;;;20.70;42.21;101247.84;12259491;19;19918;-91
2022/08/03 02:18:29;;;;;;;;;;;22.50;39.10;;;20.61;42.31;101237.22;12254092;19;19922;-90
2022/08/03 02:22:32;;;;;;;;;;;22.40;39.10;;;20.73;42.30;101249.38;12256561;19;19940;-91
2022/08/03 02:26:35;;;;;;;;;;;22.50;39.20;;;20.65;42.49;101236.78;12253226;19;19927;-92
2022/08/03 02:30:40;;;;;;;;;;;22.50;39.20;;;20.76;42.38;101243.78;12253583;19;19911;-92
2022/08/03 02:34:43;;;;;;;;;;;22.50;39.20;;;20.75;42.20;101253.56;12256738;19;19926;-91
2022/08/03 02:38:48;;;;;;;;;;;22.50;39.20;;;20.48;42.32;101209.09;12254289;19;19946;-89
2022/08/03 02:42:52;;;;;;;;;;;22.50;39.30;;;20.74;42.24;101243.13;12255600;19;19924;-90
2022/08/03 02:46:57;;;;;;;;;;;22.50;39.20;;;20.78;42.63;101250.63;12255740;19;19935;-89
2022/08/03 02:51:01;;;;;;;;;;;22.50;39.20;;;20.40;42.47;101184.22;12257578;19;19919;-91
2022/08/03 02:55:03;;;;;;;;;;;22.50;39.30;;;20.42;42.49;101187.59;12254664;19;19928;-90
2022/08/03 02:59:05;;;;;;;;;;;22.50;39.30;;;20.67;42.76;101241.97;12252818;19;19931;-90
2022/08/03 03:03:09;;;;;;;;;;;22.50;39.30;;;20.64;42.35;101232.47;12254083;19;19920;-89
2022/08/03 03:07:13;;;;;;;;;;;22.50;39.30;;;20.24;42.41;101164.38;12253944;19;19935;-90
2022/08/03 03:11:18;;;;;;;;;;;22.60;39.70;;;20.46;42.71;101208.38;12253090;19;19926;-90
2022/08/03 03:15:20;;;;;;;;;;;22.70;39.30;;;20.64;42.51;101232.47;12254072;19;19987;-90
2022/08/03 03:19:23;;;;;;;;;;;22.60;39.20;;;20.70;42.41;101250.50;12252393;19;19928;-90
2022/08/03 03:23:25;;;;;;;;;;;22.60;39.20;;;20.37;42.68;101189.81;12254119;19;19911;-89
2022/08/03 03:27:27;;;;;;;;;;;22.60;39.20;;;20.74;42.67;101243.13;12252034;19;20254;-90
2022/08/03 03:31:28;;;;;;;;;;;22.60;39.20;;;20.29;42.87;101170.09;12253437;19;19911;-90
2022/08/03 03:35:31;;;;;;;;;;;22.60;39.30;;;20.85;42.85;101263.38;12253525;19;20364;-90
2022/08/03 03:39:33;;;;;;;;;;;22.60;39.20;;;20.67;42.56;101232.19;12251036;19;19932;-90
2022/08/03 03:43:34;;;;;;;;;;;22.60;39.20;;;20.70;42.93;101234.56;12252730;19;20342;-90
2022/08/03 03:47:39;;;;;;;;;;;22.80;39.40;;;20.55;42.64;101210.25;12248606;19;21895;-89
2022/08/03 03:51:41;;;;;;;;;;;22.80;39.40;;;20.73;43.03;101247.56;12253035;19;19913;-91
2022/08/03 03:55:43;;;;;;;;;;;22.60;39.30;;;20.71;43.14;101238.91;12252542;19;20321;-91
2022/08/03 03:59:44;;;;;;;;;;;22.60;39.30;;;20.73;43.00;101239.59;12241294;19;19990;-90
2022/08/03 04:03:46;;;;;;;;;;;22.70;39.40;;;20.52;42.88;101207.00;12249696;19;19915;-89
2022/08/03 04:12:27;;;;;;;;;;;22.60;39.30;;;20.66;43.01;101240.31;12247841;19;19930;-89
2022/08/03 04:16:35;;;;;;;;;;;22.70;39.40;;;20.27;43.00;101179.16;12247388;19;20261;-90
2022/08/03 04:20:37;;;;;;;;;;;22.60;39.40;;;20.43;42.97;101208.66;12242072;19;20653;-90
2022/08/03 04:24:42;;;;;;;;;;;22.60;39.40;;;20.69;43.29;101262.09;12246859;19;19919;-90
2022/08/03 04:28:45;;;;;;;;;;;22.60;39.40;;;20.72;43.11;101264.47;12243497;19;20279;-90
2022/08/03 04:32:50;;;;;;;;;;;22.50;39.50;;;20.58;43.39;101256.91;12245660;19;19953;-90
2022/08/03 04:36:56;;;;;;;;;;;22.50;39.50;;;20.51;43.36;101251.25;12243144;19;19922;-89
2022/08/03 04:40:59;;;;;;;;;;;22.50;39.60;;;20.50;42.94;101254.06;12243613;19;19922;-90
2022/08/03 04:45:01;;;;;;;;;;;22.40;39.60;;;20.52;43.10;101257.41;12242351;19;19914;-91
2022/08/03 04:49:04;;;;;;;;;;;22.40;39.60;;;20.54;43.25;101266.09;12240828;19;19919;-90
2022/08/03 04:53:06;;;;;;;;;;;22.60;39.90;;;20.45;43.05;101259.78;12237903;19;19939;-91
2022/08/03 04:57:09;;;;;;;;;;;22.40;39.80;;;20.43;43.24;101252.94;12242183;19;19978;-90
2022/08/03 05:01:11;;;;;;;;;;;22.40;39.80;;;20.64;43.28;101285.56;12241503;19;20245;-90
2022/08/03 05:05:14;;;;;;;;;;;22.40;39.90;;;20.45;43.30;101250.97;12246432;19;19935;-90
2022/08/03 05:09:15;;;;;;;;;;;22.50;40.00;;;20.67;43.66;101282.63;12247207;19;19925;-90
2022/08/03 05:13:17;;;;;;;;;;;22.50;40.00;;;20.24;43.40;101212.09;12253038;19;19929;-91
2022/08/03 05:17:18;;;;;;;;;;;22.50;40.00;;;20.29;43.62;101209.88;12248643;19;19933;-89
2022/08/03 05:21:20;;;;;;;;;;;22.50;40.10;;;20.57;43.78;101254.38;12251603;19;20527;-90
2022/08/03 05:25:22;;;;;;;;;;;22.60;40.20;;;20.66;43.67;101259.72;12252915;19;19949;-90
2022/08/03 05:29:23;;;;;;;;;;;22.60;40.20;;;20.86;43.43;101278.31;12248086;19;19907;-91
2022/08/03 05:33:25;;;;;;;;;;;22.60;40.30;;;20.38;43.78;101202.91;12254790;19;19926;-88
2022/08/03 05:37:26;;;;;;;;;;;22.70;40.40;;;20.78;43.63;101253.28;12254218;19;19923;-89
2022/08/03 05:41:28;;;;;;;;;;;22.70;40.40;;;20.68;43.65;101225.91;12253648;19;20332;-91
2022/08/03 05:45:29;;;;;;;;;;;22.80;40.50;;;21.10;43.84;101276.09;12251177;19;20241;-87
2022/08/03 05:49:34;;;;;;;;;;;22.90;40.60;;;21.29;43.87;101290.38;12249187;19;19931;-88
2022/08/03 05:53:37;;;;;;;;;;;23.00;40.80;;;21.41;43.81;101268.00;12252612;19;19914;-87
2022/08/03 05:57:38;;;;;;;;;;;23.10;41.10;;;21.75;44.06;101281.66;12251920;19;19922;-88
2022/08/03 06:01:40;;;;;;;;;;;23.30;41.20;;;21.92;44.23;101260.59;12251962;19;19927;-89
2022/08/03 06:05:42;;;;;;;;;;;23.50;41.30;;;22.48;43.77;101288.94;12243557;19;19911;-88
2022/08/03 06:09:43;;;;;;;;;;;23.80;41.40;;;22.77;43.91;101277.28;12244903;19;19942;-87
2022/08/03 06:13:45;;;;;;;;;;;24.00;41.30;;;23.15;43.92;101284.19;12248491;19;19935;-88
2022/08/03 06:17:47;;;;;;;;;;;24.40;41.60;;;23.58;43.90;101295.84;12247299;19;19932;-88
2022/08/03 06:21:49;;;;;;;;;;;24.80;41.20;;;23.82;43.72;101282.72;12249407;19;19923;-88
2022/08/03 06:25:50;;;;;;;;;;;25.10;41.00;;;23.85;43.86;101250.38;12246431;19;19918;-90
2022/08/03 06:29:52;;;;;;;;;;;25.40;40.80;;;24.31;43.64;101284.78;12243315;19;20381;-89
2022/08/03 06:33:53;;;;;;;;;;;25.80;40.70;;;24.39;43.08;101267.97;12248737;19;19932;-89
2022/08/03 06:37:55;;;;;;;;;;;25.90;40.40;;;24.68;43.59;101289.78;12244928;19;20255;-90
2022/08/03 06:41:57;;;;;;;;;;;26.10;40.20;;;24.64;43.42;101256.38;12249646;19;20546;-88
2022/08/03 06:45:59;;;;;;;;;;;26.40;40.20;;;25.01;43.04;101295.19;12245074;19;19915;-88
2022/08/03 06:50:00;;;;;;;;;;;26.50;40.40;;;25.15;42.91;101299.06;12246970;19;20343;-88
2022/08/03 06:54:02;;;;;;;;;;;26.70;39.90;;;25.22;43.14;101288.53;12248014;19;19926;-88
2022/08/03 06:58:04;;;;;;;;;;;26.90;39.60;;;25.34;43.14;101290.69;12245781;19;19941;-88
2022/08/03 07:02:06;;;;;;;;;;;27.00;39.50;;;25.52;42.92;101295.03;12247425;19;19923;-89
2022/08/03 07:06:07;;;;;;;;;;;27.20;39.30;;;25.68;42.85;101297.72;12243826;19;19940;-88
2022/08/03 07:10:10;;;;;;;;;;;27.20;39.20;;;25.79;43.09;101291.16;12242327;19;19932;-89
2022/08/03 07:14:12;;;;;;;;;;;27.40;39.10;;;25.96;42.91;101290.13;12245748;19;19918;-87
2022/08/03 07:18:13;;;;;;;;;;;27.60;39.20;;;26.04;42.74;101279.41;12244022;19;20329;-88
2022/08/03 07:22:15;;;;;;;;;;;27.70;39.10;;;26.32;42.63;101286.16;12243806;19;19918;-90
2022/08/03 07:26:16;;;;;;;;;;;27.90;39.10;;;26.54;42.25;101292.59;12241935;19;20346;-89
2022/08/03 07:30:17;;;;;;;;;;;28.10;39.10;;;26.75;42.27;101298.19;12244649;19;19915;-89
2022/08/03 07:34:19;;;;;;;;;;;28.20;39.10;;;26.95;42.53;101278.94;12243293;19;20326;-89
2022/08/03 07:38:20;;;;;;;;;;;28.50;39.00;;;27.19;42.07;101281.47;12243064;19;19915;-90
2022/08/03 07:42:22;;;;;;;;;;;28.60;38.90;;;27.54;42.21;101289.88;12245578;19;19919;-90
2022/08/03 07:46:24;;;;;;;;;;;28.90;39.00;;;27.80;42.01;101287.63;12240165;19;20326;-90
2022/08/03 07:50:26;;;;;;;;;;;29.20;39.00;;;27.75;42.29;101238.16;12231997;19;20373;-89
2022/08/03 07:54:27;;;;;;;;;;;29.40;38.80;;;28.22;41.93;101270.03;12224853;19;19945;-91
2022/08/03 07:58:29;;;;;;;;;;;29.70;38.90;;;28.59;41.80;101292.38;12232892;19;19943;-90
2022/08/03 08:02:30;;;;;;;;;;;29.90;38.70;;;28.79;41.84;101276.50;12237328;19;20657;-89
2022/08/03 08:06:32;;;;;;;;;;;30.30;38.80;;;29.02;41.61;101284.34;12230599;19;20313;-90
2022/08/03 08:10:34;;;;;;;;;;;30.40;38.40;;;29.10;41.38;101262.72;12228357;19;19943;-90
2022/08/03 08:14:36;;;;;;;;;;;30.60;38.40;;;29.50;41.41;101289.97;12241891;19;20259;-90
2022/08/03 08:18:37;;;;;;;;;;;30.90;38.50;;;29.69;41.23;101284.94;12231878;19;20306;-89
2022/08/03 08:22:39;;;;;;;;;;;31.10;38.10;;;29.95;40.94;101290.50;12244369;19;19915;-88
2022/08/03 08:26:41;;;;;;;;;;;31.40;38.50;;;30.10;41.12;101284.16;12239449;19;19915;-89
2022/08/03 08:30:42;;;;;;;;;;;31.50;38.30;;;30.05;41.07;101240.81;12235947;19;19949;-90
2022/08/03 08:34:44;;;;;;;;;;;31.70;38.10;;;30.58;40.62;101289.53;12238842;19;19934;-88
2022/08/03 08:38:46;;;;;;;;;;;31.90;37.70;;;30.75;40.65;101279.22;12237655;19;19963;-88
2022/08/03 08:42:47;;;;;;;;;;;32.10;37.90;;;30.94;40.65;101281.13;12232915;19;19919;-87
2022/08/03 08:46:49;;;;;;;;;;;32.30;36.70;;;31.13;40.35;101298.38;12229798;19;19915;-87
2022/08/03 08:50:55;;;;;;;;;;;32.50;37.70;;;31.20;40.19;101283.03;12239090;19;19921;-87
2022/08/03 08:55:05;;;;;;;;;;;32.70;37.80;;;31.43;40.18;101277.25;12240243;19;19933;-89
2022/08/03 08:59:06;;;;;;;;;;;32.80;37.60;;;31.53;39.85;101266.81;12233324;19;19934;-89
2022/08/03 09:03:09;;;;;;;;;;;33.00;37.20;;;31.79;39.46;101285.91;12235972;19;19918;-88
2022/08/03 09:07:11;;;;;;;;;;;33.20;37.30;;;31.81;39.37;101270.31;12240362;19;19923;-89
2022/08/03 09:11:12;;;;;;;;;;;33.60;37.60;;;32.07;39.44;101294.56;12232753;19;19978;-88
2022/08/03 09:15:23;;;;;;;;;;;33.40;36.90;;;32.20;39.66;101282.06;12240718;19;20322;-88
2022/08/03 09:19:24;;;;;;;;;;;33.60;37.00;;;32.24;39.06;101262.47;12236997;19;19931;-88
2022/08/03 09:23:42;;;;;;;;;;;33.70;36.90;;;32.28;39.30;101246.69;12238506;19;19935;-88
2022/08/03 09:27:45;;;;;;;;;;;33.90;37.00;;;32.54;39.04;101265.50;12235481;19;19926;-85
2022/08/03 09:31:46;;;;;;;;;;;34.00;36.70;;;32.67;39.05;101271.84;12237536;19;20272;-86
2022/08/03 09:35:48;;;;;;;;;;;34.10;36.10;;;32.72;38.75;101250.38;12234140;19;20334;-85
2022/08/03 09:39:50;;;;;;;;;;;34.30;36.40;;;32.95;38.93;101257.94;12233826;19;19922;-87
2022/08/03 09:43:55;;;;;;;;;;;34.40;36.60;;;33.17;38.54;101267.34;12234387;19;19943;-87
2022/08/03 09:48:17;;;;;;;;;;;34.50;36.50;;;33.27;38.11;101250.63;12236777;19;19911;-87
2022/08/03 09:52:21;;;;;;;;;;;34.70;36.60;;;33.38;38.46;101246.31;12241998;19;19926;-87
2022/08/03 09:56:36;;;;;;;;;;;34.90;36.30;;;33.52;37.84;101261.41;12254568;19;19915;-87
2022/08/03 10:01:10;;;;;;;;;;;35.00;36.10;;;33.59;37.89;101264.06;12247453;19;19911;-90
2022/08/03 10:05:12;;;;;;;;;;;35.00;35.80;;;33.58;37.50;101260.53;12248789;19;20289;-88
2022/08/03 10:09:15;;;;;;;;;;;35.10;35.90;;;33.55;37.24;101227.66;12249944;19;20335;-89
2022/08/03 10:13:17;;;;;;;;;;;35.20;36.20;;;33.61;37.60;101224.88;12255200;19;19910;-88
2022/08/03 10:17:21;;;;;;;;;;;35.20;35.80;;;33.86;37.40;101246.44;12251123;19;19915;-88
2022/08/03 10:21:22;;;;;;;;;;;35.30;35.70;;;33.72;37.29;101209.72;12252317;19;19918;-88
2022/08/03 10:25:24;;;;;;;;;;;35.40;35.40;;;33.66;37.25;101178.97;12248760;19;19922;-89
2022/08/03 10:29:27;;;;;;;;;;;35.50;35.70;;;34.08;36.53;101240.59;12249005;19;19918;-88
2022/08/03 10:33:33;;;;;;;;;;;35.60;35.40;;;34.17;36.79;101233.81;12252262;19;19915;-87
2022/08/03 10:37:40;;;;;;;;;;;35.60;35.60;;;34.32;36.91;101236.94;12250671;19;19919;-89
2022/08/03 10:41:44;;;;;;;;;;;35.70;35.20;;;34.36;36.59;101219.16;12250582;19;19991;-88
2022/08/03 10:45:46;;;;;;;;;;;35.80;35.10;;;34.37;36.57;101209.13;12248783;19;19926;-88
2022/08/03 10:49:48;;;;;;;;;;;35.80;35.20;;;34.44;36.50;101209.03;12247811;19;19923;-88
2022/08/03 10:53:50;;;;;;;;;;;35.90;35.00;;;34.43;35.91;101210.06;12251863;19;20354;-89
2022/08/03 10:57:53;;;;;;;;;;;35.90;35.00;;;34.50;35.99;101210.81;12248416;19;20378;-86
2022/08/03 11:01:56;;;;;;;;;;;36.00;34.70;;;34.57;35.72;101212.41;12249852;19;19915;-87
2022/08/03 11:06:25;;;;;;;;;;;36.00;34.90;;;34.62;35.95;101198.16;12246646;19;20373;-88
2022/08/03 11:10:30;;;;;;;;;;;36.00;34.60;;;34.70;35.88;101205.94;12245565;19;19923;-88
2022/08/03 11:14:44;;;;;;;;;;;36.10;35.10;;;34.80;35.84;101199.94;12248318;19;19911;-87
2022/08/03 11:19:00;;;;;;;;;;;36.20;34.90;;;34.90;35.38;101197.47;12247551;19;20242;-88
2022/08/03 11:23:02;;;;;;;;;;;36.20;34.70;;;34.87;35.20;101189.78;12248952;19;19931;-88
2022/08/03 11:27:15;;;;;;;;;;;36.30;34.40;;;35.02;35.41;101198.28;12245847;19;20302;-87
2022/08/03 11:31:37;;;;;;;;;;;36.30;34.10;;;35.07;35.13;101200.31;12246514;19;19926;-88
2022/08/03 11:36:00;;;;;;;;;;;36.40;34.80;;;35.08;35.14;101193.00;12247656;19;19906;-88
2022/08/03 11:40:02;;;;;;;;;;;36.40;34.50;;;35.02;34.26;101192.03;12240439;19;19923;-88
2022/08/03 11:44:04;;;;;;;;;;;36.50;34.60;;;34.91;34.66;101168.44;12244030;19;19925;-88
2022/08/03 11:48:14;;;;;;;;;;;36.50;34.10;;;34.97;34.83;101167.47;12244869;19;19923;-89
2022/08/03 11:52:17;;;;;;;;;;;36.40;34.00;;;35.12;34.67;101186.88;12250937;19;19922;-90
2022/08/03 11:56:19;;;;;;;;;;;36.50;34.40;;;35.14;34.48;101176.59;12252028;19;19911;-89
2022/08/03 12:00:29;;;;;;;;;;;36.50;34.10;;;35.24;34.50;101171.41;12248146;19;19918;-88
2022/08/03 12:04:30;;;;;;;;;;;36.60;33.70;;;35.11;34.21;101143.69;12248838;19;19919;-88
2022/08/03 12:08:33;;;;;;;;;;;36.70;33.90;;;35.32;34.35;101162.03;12247170;19;19919;-89
2022/08/03 12:12:34;;;;;;;;;;;36.70;33.20;;;35.29;34.02;101148.13;12249560;19;20419;-88
2022/08/03 12:16:35;;;;;;;;;;;36.80;34.10;;;35.16;33.38;101111.19;12248348;19;19911;-88
2022/08/03 12:20:37;;;;;;;;;;;36.80;34.20;;;35.22;33.81;101121.94;12246283;19;19918;-87
2022/08/03 12:24:41;;;;;;;;;;;36.80;33.70;;;35.58;33.75;101168.06;12249726;19;19919;-88
2022/08/03 12:28:47;;;;;;;;;;;36.90;33.50;;;35.58;33.68;101158.00;12243301;19;19919;-89
2022/08/03 12:32:48;;;;;;;;;;;36.90;33.60;;;35.68;33.86;101157.41;12244908;19;19918;-87
2022/08/03 12:36:52;;;;;;;;;;;37.00;33.50;;;35.69;33.42;101153.59;12240437;19;20383;-88
2022/08/03 12:40:58;;;;;;;;;;;37.10;33.60;;;35.76;33.21;101148.03;12245686;19;20244;-89
2022/08/03 12:44:59;;;;;;;;;;;37.10;33.60;;;35.82;33.21;101142.44;12246120;19;19926;-88
2022/08/03 12:49:19;;;;;;;;;;;37.10;33.30;;;35.91;33.26;101145.59;12246016;19;19911;-89
2022/08/03 12:53:27;;;;;;;;;;;37.20;33.20;;;35.83;33.32;101129.69;12247777;19;20008;-88
2022/08/03 12:57:41;;;;;;;;;;;37.20;33.10;;;35.91;33.13;101140.16;12246042;19;19915;-88
2022/08/03 13:01:43;;;;;;;;;;;37.20;33.60;;;35.86;33.43;101124.59;12240404;19;20328;-87
2022/08/03 13:05:45;;;;;;;;;;;37.20;32.90;;;35.93;32.96;101121.72;12242477;19;19919;-87
2022/08/03 13:09:54;;;;;;;;;;;37.30;33.30;;;36.07;32.97;101144.84;12241014;19;19919;-86
2022/08/03 13:13:56;;;;;;;;;;;37.30;33.10;;;35.86;32.70;101088.41;12245225;19;19923;-89
2022/08/03 13:17:57;;;;;;;;;;;37.40;33.50;;;36.06;32.54;101112.47;12246945;19;19919;-88
2022/08/03 13:22:00;;;;;;;;;;;37.50;33.10;;;36.12;32.50;101119.63;12247284;19;19928;-88
2022/08/03 13:26:01;;;;;;;;;;;37.50;33.20;;;36.10;32.35;101105.44;12249074;19;19935;-88
2022/08/03 13:30:03;;;;;;;;;;;37.50;32.60;;;36.24;32.47;101130.44;12254933;19;19915;-87
2022/08/03 13:34:05;;;;;;;;;;;37.50;32.60;;;36.05;32.59;101103.47;12253038;19;19951;-87
2022/08/03 13:38:06;;;;;;;;;;;37.50;32.60;;;35.79;32.49;101058.69;12253038;19;19974;-87
2022/08/03 13:42:08;;;;;;;;;;;37.50;32.90;;;36.13;32.29;101121.28;12250251;19;19921;-87
2022/08/03 13:46:09;;;;;;;;;;;37.50;31.70;;;36.17;32.36;101113.47;12231366;19;19930;-88
2022/08/03 13:50:11;;;;;;;;;;;37.50;32.70;;;36.23;32.32;101115.19;12246809;19;19932;-87
2022/08/03 13:54:12;;;;;;;;;;;37.50;32.10;;;36.24;32.25;101100.53;12251539;19;19927;-87
2022/08/03 13:58:14;;;;;;;;;;;37.50;32.30;;;36.24;31.87;101095.06;12249445;19;19954;-87
2022/08/03 14:02:15;;;;;;;;;;;37.60;32.80;;;36.28;31.80;101096.25;12249909;19;19966;-87
2022/08/03 14:06:17;;;;;;;;;;;37.60;32.70;;;36.30;32.08;101094.13;12248083;19;19919;-86
2022/08/03 14:10:19;;;;;;;;;;;37.60;32.70;;;36.06;31.75;101056.19;12245983;19;20142;-86
2022/08/03 14:14:21;;;;;;;;;;;37.60;32.40;;;36.33;31.83;101091.72;12251179;19;19907;-86
2022/08/03 14:18:22;;;;;;;;;;;37.60;32.70;;;36.34;31.74;101087.09;12249434;19;20285;-86
2022/08/03 14:22:24;;;;;;;;;;;37.60;32.50;;;36.36;31.51;101084.94;12252892;19;19944;-86
2022/08/03 14:26:25;;;;;;;;;;;37.70;32.50;;;36.34;31.71;101074.31;12249341;19;19918;-86
2022/08/03 14:30:27;;;;;;;;;;;37.70;32.10;;;36.48;31.64;101087.56;12248051;19;20322;-87
2022/08/03 14:34:28;;;;;;;;;;;37.70;32.60;;;36.45;31.51;101077.19;12248927;19;19923;-86
2022/08/03 14:38:30;;;;;;;;;;;37.70;32.10;;;36.40;31.48;101067.03;12243035;19;20352;-88
2022/08/03 14:42:31;;;;;;;;;;;37.70;31.90;;;36.54;31.59;101081.19;12246755;19;19933;-86
2022/08/03 14:46:33;;;;;;;;;;;37.80;32.40;;;36.49;31.55;101065.56;12245249;19;19911;-86
2022/08/03 14:50:34;;;;;;;;;;;37.80;32.00;;;36.61;31.27;101083.72;12240697;19;19923;-86
2022/08/03 14:54:35;;;;;;;;;;;37.90;31.80;;;36.55;31.28;101080.94;12249394;19;19910;-86
2022/08/03 14:58:37;;;;;;;;;;;37.90;32.10;;;36.53;31.36;101072.16;12245229;19;19922;-86
2022/08/03 15:02:38;;;;;;;;;;;37.90;32.20;;;36.58;31.06;101068.72;12244857;19;19930;-85
2022/08/03 15:06:40;;;;;;;;;;;37.80;31.30;;;36.60;30.95;101076.66;12245069;19;19971;-87
2022/08/03 15:10:41;;;;;;;;;;;37.90;31.30;;;36.59;30.83;101072.25;12241678;19;19915;-86
2022/08/03 15:14:42;;;;;;;;;;;37.90;32.20;;;36.65;31.08;101071.28;12247572;19;19919;-86
2022/08/03 15:18:44;;;;;;;;;;;37.90;32.00;;;36.68;30.93;101071.59;12246559;19;19948;-86
2022/08/03 15:22:45;;;;;;;;;;;37.90;31.90;;;36.71;31.12;101062.94;12249818;19;19907;-86
2022/08/03 15:26:46;;;;;;;;;;;37.90;32.00;;;36.74;30.78;101061.59;12245272;19;19926;-86
2022/08/03 15:30:50;;;;;;;;;;;38.00;32.30;;;36.71;30.83;101051.22;12245763;19;19927;-87
2022/08/03 15:34:51;;;;;;;;;;;38.00;31.70;;;36.59;30.71;101015.09;12248444;19;19931;-86
2022/08/03 15:38:53;;;;;;;;;;;38.00;32.00;;;36.81;30.69;101048.63;12245300;19;19934;-86
2022/08/03 15:42:54;;;;;;;;;;;38.00;31.70;;;36.84;30.73;101041.88;12247588;19;19936;-86
2022/08/03 15:46:56;;;;;;;;;;;38.00;31.70;;;36.80;30.67;101038.00;12245825;19;19910;-86
2022/08/03 15:50:57;;;;;;;;;;;38.10;31.80;;;36.83;30.59;101027.41;12246200;19;19919;-89
2022/08/03 15:54:58;;;;;;;;;;;38.10;31.80;;;36.80;30.63;101022.47;12243130;19;19918;-86
2022/08/03 15:59:00;;;;;;;;;;;38.10;31.50;;;36.83;30.38;101037.47;12244538;19;19911;-88
2022/08/03 16:03:02;;;;;;;;;;;38.10;31.30;;;36.72;30.48;101028.34;12246878;19;19918;-88
2022/08/03 16:07:03;;;;;;;;;;;38.10;31.60;;;36.69;30.09;101042.47;12249457;19;19939;-88
2022/08/03 16:11:05;;;;;;;;;;;38.10;31.30;;;36.63;30.04;101036.13;12252561;19;19915;-88
2022/08/03 16:15:08;;;;;;;;;;;38.00;31.40;;;36.57;30.62;101039.88;12251136;19;19915;-89
2022/08/03 16:19:09;;;;;;;;;;;37.90;31.50;;;36.46;30.21;101033.41;12249771;19;19931;-88
2022/08/03 16:23:11;;;;;;;;;;;37.90;31.60;;;36.47;30.39;101031.53;12249331;19;19978;-88
2022/08/03 16:27:12;;;;;;;;;;;37.80;31.50;;;36.32;30.10;101011.19;12245954;19;19974;-85
2022/08/03 16:31:13;;;;;;;;;;;37.80;31.70;;;36.37;30.29;101024.03;12250752;19;19922;-87
2022/08/03 16:37:51;;;;;;;;;;;37.70;31.60;;;36.41;30.17;101030.63;12312682;19;19910;-87
2022/08/03 16:41:52;;;;;;;;;;;37.70;31.50;;;36.44;30.19;101037.47;12310995;19;19929;-87
2022/08/03 16:45:54;;;;;;;;;;;37.60;31.40;;;36.40;30.23;101033.59;12306204;19;20260;-86
2022/08/03 16:49:55;;;;;;;;;;;37.60;31.60;;;36.31;29.83;101014.97;12308732;19;20340;-87
2022/08/03 16:53:57;;;;;;;;;;;37.60;31.20;;;36.05;30.00;100980.25;12308759;19;19944;-87
2022/08/03 16:58:00;;;;;;;;;;;37.60;31.30;;;36.05;29.89;100994.69;12307001;19;19931;-87
2022/08/03 17:02:03;;;;;;;;;;;37.60;31.50;;;36.17;30.07;101013.66;12310070;19;20300;-87
2022/08/03 17:06:07;;;;;;;;;;;37.60;31.40;;;36.16;29.79;101025.63;12306881;19;19927;-87
2022/08/03 17:10:08;;;;;;;;;;;37.50;31.50;;;36.20;30.03;101042.25;12306185;19;19988;-87
2022/08/03 17:14:12;;;;;;;;;;;37.50;31.40;;;36.04;29.90;101017.50;12309917;19;19932;-87
2022/08/03 17:18:16;;;;;;;;;;;37.40;31.40;;;35.88;29.97;100999.28;12304225;19;19919;-87
2022/08/03 17:22:21;;;;;;;;;;;37.40;31.30;;;35.99;29.85;101019.31;12304017;19;19926;-87
2022/08/03 17:26:24;;;;;;;;;;;37.30;31.30;;;36.04;30.15;101033.00;12301303;19;20001;-87
2022/08/03 17:31:13;;;;;;;;;;;37.30;31.40;;;35.94;29.84;101027.38;12299771;19;20564;-87
2022/08/03 17:34:48;;;;;;;;;;;37.30;31.60;;;35.89;29.60;101031.69;12301450;19;19914;-87
2022/08/03 17:38:53;;;;;;;;;;;37.20;31.50;;;35.58;29.67;100986.00;12304188;19;20248;-87
2022/08/03 17:42:55;;;;;;;;;;;37.10;31.60;;;35.78;30.02;101039.88;12306073;19;19919;-87
2022/08/03 17:46:56;;;;;;;;;;;37.10;31.60;;;35.58;29.65;101019.44;12286825;19;19946;-87
2022/08/03 17:51:10;;;;;;;;;;;37.00;31.40;;;35.53;30.04;101041.03;12259032;19;19923;-87
2022/08/03 17:55:19;;;;;;;;;;;36.90;31.40;;;35.39;29.74;101036.97;12259187;19;19919;-87
2022/08/03 17:59:32;;;;;;;;;;;36.80;31.40;;;35.25;29.86;101044.59;12255991;19;19918;-87
2022/08/03 18:03:36;;;;;;;;;;;36.70;31.50;;;35.17;30.13;101053.94;12261874;19;19914;-88
2022/08/03 18:07:43;;;;;;;;;;;36.50;31.60;;;35.02;30.07;101040.81;12260688;19;20464;-87
2022/08/03 18:11:50;;;;;;;;;;;36.40;31.80;;;34.96;30.33;101046.41;12259772;19;19918;-87
2022/08/03 18:16:03;;;;;;;;;;;36.30;31.80;;;34.79;30.28;101043.59;12258116;19;19906;-87
2022/08/03 18:20:05;;;;;;;;;;;36.20;31.80;;;34.72;30.22;101049.13;12257400;19;19982;-87
2022/08/03 18:24:07;;;;;;;;;;;36.10;31.90;;;34.63;30.20;101047.84;12260825;19;19999;-87